sensor_id;sensor_type;location;lat;lon;timestamp;pressure;altitude;pressure_sealevel;temperature;humidity
61035;BME280;46916;40.564;-7.958;2023-01-25T00:00:02;98344.59;;;6.01;60.76
61035;BME280;46916;40.564;-7.958;2023-01-25T00:02:05;98336.59;;;6.04;60.78
61035;BME280;46916;40.564;-7.958;2023-01-25T00:04:06;98340.81;;;6.06;60.68
61035;BME280;46916;40.564;-7.958;2023-01-25T00:06:07;98350.38;;;6.06;61.03
61035;BME280;46916;40.564;-7.958;2023-01-25T00:08:08;98343.06;;;5.97;61.15
61035;BME280;46916;40.564;-7.958;2023-01-25T00:10:09;98342.13;;;5.98;61.30
61035;BME280;46916;40.564;-7.958;2023-01-25T00:12:10;98346.50;;;5.97;61.52
61035;BME280;46916;40.564;-7.958;2023-01-25T00:14:12;98342.56;;;5.88;61.68
61035;BME280;46916;40.564;-7.958;2023-01-25T00:16:13;98343.47;;;5.87;62.07
61035;BME280;46916;40.564;-7.958;2023-01-25T00:18:13;98350.28;;;5.90;62.06
61035;BME280;46916;40.564;-7.958;2023-01-25T00:20:14;98345.91;;;5.90;61.96
61035;BME280;46916;40.564;-7.958;2023-01-25T00:22:15;98349.34;;;5.92;61.52
61035;BME280;46916;40.564;-7.958;2023-01-25T00:24:16;98343.41;;;5.89;62.18
61035;BME280;46916;40.564;-7.958;2023-01-25T00:26:17;98337.63;;;5.84;61.57
61035;BME280;46916;40.564;-7.958;2023-01-25T00:28:18;98346.25;;;5.84;61.79
61035;BME280;46916;40.564;-7.958;2023-01-25T00:30:19;98345.56;;;5.81;62.17
61035;BME280;46916;40.564;-7.958;2023-01-25T00:36:31;98344.97;;;5.76;62.08
61035;BME280;46916;40.564;-7.958;2023-01-25T00:38:33;98333.19;;;5.68;62.37
61035;BME280;46916;40.564;-7.958;2023-01-25T00:40:34;98332.41;;;5.66;62.29
61035;BME280;46916;40.564;-7.958;2023-01-25T00:42:35;98346.31;;;5.65;62.01
61035;BME280;46916;40.564;-7.958;2023-01-25T00:44:37;98333.56;;;5.61;62.30
61035;BME280;46916;40.564;-7.958;2023-01-25T00:46:38;98340.53;;;5.60;61.89
61035;BME280;46916;40.564;-7.958;2023-01-25T00:48:39;98333.19;;;5.51;61.73
61035;BME280;46916;40.564;-7.958;2023-01-25T00:50:40;98334.31;;;5.45;62.53
61035;BME280;46916;40.564;-7.958;2023-01-25T00:52:41;98331.97;;;5.41;62.33
61035;BME280;46916;40.564;-7.958;2023-01-25T00:54:41;98329.69;;;5.35;62.80
61035;BME280;46916;40.564;-7.958;2023-01-25T00:56:42;98325.53;;;5.31;62.79
61035;BME280;46916;40.564;-7.958;2023-01-25T00:58:43;98328.16;;;5.31;62.74
61035;BME280;46916;40.564;-7.958;2023-01-25T01:00:44;98312.94;;;5.23;63.40
61035;BME280;46916;40.564;-7.958;2023-01-25T01:02:45;98323.09;;;5.28;63.31
61035;BME280;46916;40.564;-7.958;2023-01-25T01:04:46;98322.31;;;5.26;62.53
61035;BME280;46916;40.564;-7.958;2023-01-25T01:06:47;98322.31;;;5.26;63.19
61035;BME280;46916;40.564;-7.958;2023-01-25T01:08:47;98327.50;;;5.26;62.64
61035;BME280;46916;40.564;-7.958;2023-01-25T01:10:48;98322.47;;;5.22;63.58
61035;BME280;46916;40.564;-7.958;2023-01-25T01:12:50;98319.78;;;5.24;63.28
61035;BME280;46916;40.564;-7.958;2023-01-25T01:14:50;98320.53;;;5.26;63.57
61035;BME280;46916;40.564;-7.958;2023-01-25T01:16:51;98327.50;;;5.26;63.05
61035;BME280;46916;40.564;-7.958;2023-01-25T01:18:52;98326.75;;;5.24;63.20
61035;BME280;46916;40.564;-7.958;2023-01-25T01:20:54;98329.34;;;5.24;62.81
61035;BME280;46916;40.564;-7.958;2023-01-25T01:22:55;98328.56;;;5.21;62.65
61035;BME280;46916;40.564;-7.958;2023-01-25T01:24:56;98343.09;;;5.26;62.78
61035;BME280;46916;40.564;-7.958;2023-01-25T01:26:56;98341.13;;;5.31;62.93
61035;BME280;46916;40.564;-7.958;2023-01-25T01:28:58;98335.06;;;5.30;62.49
61035;BME280;46916;40.564;-7.958;2023-01-25T01:31:00;98340.25;;;5.30;62.77
61035;BME280;46916;40.564;-7.958;2023-01-25T01:33:05;98343.09;;;5.26;63.26
61035;BME280;46916;40.564;-7.958;2023-01-25T01:35:06;98349.81;;;5.30;62.53
61035;BME280;46916;40.564;-7.958;2023-01-25T01:37:07;98349.59;;;5.34;62.55
61035;BME280;46916;40.564;-7.958;2023-01-25T01:39:08;98352.13;;;5.36;62.80
61035;BME280;46916;40.564;-7.958;2023-01-25T01:41:10;98354.41;;;5.42;61.97
61035;BME280;46916;40.564;-7.958;2023-01-25T01:43:22;98359.59;;;5.42;62.57
61035;BME280;46916;40.564;-7.958;2023-01-25T01:47:45;98345.78;;;5.41;61.68
61035;BME280;46916;40.564;-7.958;2023-01-25T01:49:52;98343.19;;;5.41;61.65
61035;BME280;46916;40.564;-7.958;2023-01-25T01:52:04;98350.00;;;5.44;62.46
61035;BME280;46916;40.564;-7.958;2023-01-25T01:58:54;98353.28;;;5.47;61.53
61035;BME280;46916;40.564;-7.958;2023-01-25T02:00:56;98351.75;;;5.43;61.95
61035;BME280;46916;40.564;-7.958;2023-01-25T02:02:57;98356.88;;;5.45;61.28
61035;BME280;46916;40.564;-7.958;2023-01-25T02:05:00;98361.94;;;5.48;61.53
61035;BME280;46916;40.564;-7.958;2023-01-25T02:07:10;98363.03;;;5.42;62.02
61035;BME280;46916;40.564;-7.958;2023-01-25T02:09:18;98371.00;;;5.39;61.69
61035;BME280;46916;40.564;-7.958;2023-01-25T02:11:21;98364.09;;;5.38;61.50
61035;BME280;46916;40.564;-7.958;2023-01-25T02:13:22;98368.69;;;5.33;62.17
61035;BME280;46916;40.564;-7.958;2023-01-25T02:15:26;98374.91;;;5.31;62.51
61035;BME280;46916;40.564;-7.958;2023-01-25T02:17:31;98374.03;;;5.30;62.30
61035;BME280;46916;40.564;-7.958;2023-01-25T02:21:39;98376.72;;;5.29;62.20
61035;BME280;46916;40.564;-7.958;2023-01-25T02:24:09;98378.34;;;5.31;62.41
61035;BME280;46916;40.564;-7.958;2023-01-25T02:26:13;98374.94;;;5.29;61.76
61035;BME280;46916;40.564;-7.958;2023-01-25T02:28:28;98383.44;;;5.33;61.69
61035;BME280;46916;40.564;-7.958;2023-01-25T02:30:30;98379.94;;;5.34;61.77
61035;BME280;46916;40.564;-7.958;2023-01-25T02:32:31;98382.53;;;5.34;62.35
61035;BME280;46916;40.564;-7.958;2023-01-25T02:34:32;98371.38;;;5.32;61.63
61035;BME280;46916;40.564;-7.958;2023-01-25T02:36:35;98375.66;;;5.33;62.18
61035;BME280;46916;40.564;-7.958;2023-01-25T02:38:42;98384.38;;;5.32;61.90
61035;BME280;46916;40.564;-7.958;2023-01-25T02:40:57;98388.72;;;5.31;61.78
61035;BME280;46916;40.564;-7.958;2023-01-25T02:43:03;98389.69;;;5.29;61.60
61035;BME280;46916;40.564;-7.958;2023-01-25T02:45:05;98387.31;;;5.24;62.60
61035;BME280;46916;40.564;-7.958;2023-01-25T02:47:09;98383.09;;;5.21;62.03
61035;BME280;46916;40.564;-7.958;2023-01-25T02:49:09;98384.81;;;5.22;62.18
61035;BME280;46916;40.564;-7.958;2023-01-25T02:51:11;98387.31;;;5.24;62.29
61035;BME280;46916;40.564;-7.958;2023-01-25T02:53:13;98384.81;;;5.22;62.10
61035;BME280;46916;40.564;-7.958;2023-01-25T02:55:14;98377.31;;;5.16;62.58
61035;BME280;46916;40.564;-7.958;2023-01-25T02:57:17;98385.09;;;5.16;62.89
61035;BME280;46916;40.564;-7.958;2023-01-25T02:59:18;98387.81;;;5.13;62.66
61035;BME280;46916;40.564;-7.958;2023-01-25T03:01:24;98382.03;;;5.08;62.75
61035;BME280;46916;40.564;-7.958;2023-01-25T03:03:25;98383.84;;;5.06;62.81
61035;BME280;46916;40.564;-7.958;2023-01-25T03:05:27;98384.97;;;5.01;63.54
61035;BME280;46916;40.564;-7.958;2023-01-25T03:07:27;98383.22;;;5.01;63.74
61035;BME280;46916;40.564;-7.958;2023-01-25T03:09:29;98397.25;;;4.97;63.23
61035;BME280;46916;40.564;-7.958;2023-01-25T03:11:30;98384.47;;;4.92;63.52
61035;BME280;46916;40.564;-7.958;2023-01-25T03:13:34;98392.97;;;4.96;63.26
61035;BME280;46916;40.564;-7.958;2023-01-25T03:15:35;98396.41;;;4.96;63.42
61035;BME280;46916;40.564;-7.958;2023-01-25T03:17:36;98391.31;;;4.95;63.30
61035;BME280;46916;40.564;-7.958;2023-01-25T03:19:37;98394.94;;;4.91;63.46
61035;BME280;46916;40.564;-7.958;2023-01-25T03:21:39;98393.28;;;4.90;62.73
61035;BME280;46916;40.564;-7.958;2023-01-25T03:23:42;98391.56;;;4.89;64.03
61035;BME280;46916;40.564;-7.958;2023-01-25T03:25:44;98388.94;;;4.90;63.76
61035;BME280;46916;40.564;-7.958;2023-01-25T03:27:49;98389.91;;;4.88;63.49
61035;BME280;46916;40.564;-7.958;2023-01-25T03:29:50;98383.94;;;4.86;63.27
61035;BME280;46916;40.564;-7.958;2023-01-25T03:31:55;98394.47;;;4.83;64.13
61035;BME280;46916;40.564;-7.958;2023-01-25T03:33:57;98387.88;;;4.76;63.92
61035;BME280;46916;40.564;-7.958;2023-01-25T03:36:02;98388.78;;;4.75;63.77
61035;BME280;46916;40.564;-7.958;2023-01-25T03:38:03;98387.94;;;4.74;64.10
61035;BME280;46916;40.564;-7.958;2023-01-25T03:40:04;98388.16;;;4.69;64.44
61035;BME280;46916;40.564;-7.958;2023-01-25T03:42:06;98386.31;;;4.71;64.06
61035;BME280;46916;40.564;-7.958;2023-01-25T03:44:08;98378.13;;;4.62;64.49
61035;BME280;46916;40.564;-7.958;2023-01-25T03:46:11;98380.84;;;4.59;65.13
61035;BME280;46916;40.564;-7.958;2023-01-25T03:48:12;98379.22;;;4.56;64.51
61035;BME280;46916;40.564;-7.958;2023-01-25T03:50:13;98375.66;;;4.59;65.16
61035;BME280;46916;40.564;-7.958;2023-01-25T03:52:15;98369.91;;;4.52;65.05
61035;BME280;46916;40.564;-7.958;2023-01-25T03:54:15;98364.91;;;4.47;65.13
61035;BME280;46916;40.564;-7.958;2023-01-25T03:56:16;98369.84;;;4.54;65.27
61035;BME280;46916;40.564;-7.958;2023-01-25T03:58:29;98371.66;;;4.52;64.80
61035;BME280;46916;40.564;-7.958;2023-01-25T04:00:30;98366.69;;;4.47;65.25
61035;BME280;46916;40.564;-7.958;2023-01-25T04:02:34;98365.97;;;4.43;64.85
61035;BME280;46916;40.564;-7.958;2023-01-25T04:04:35;98375.28;;;4.47;65.01
61035;BME280;46916;40.564;-7.958;2023-01-25T04:06:37;98374.47;;;4.47;64.72
61035;BME280;46916;40.564;-7.958;2023-01-25T04:08:38;98374.75;;;4.41;65.71
61035;BME280;46916;40.564;-7.958;2023-01-25T04:10:40;98372.16;;;4.41;64.90
61035;BME280;46916;40.564;-7.958;2023-01-25T04:12:41;98376.41;;;4.42;65.09
61035;BME280;46916;40.564;-7.958;2023-01-25T04:14:42;98372.16;;;4.41;65.69
61035;BME280;46916;40.564;-7.958;2023-01-25T04:16:44;98375.78;;;4.37;65.12
61035;BME280;46916;40.564;-7.958;2023-01-25T04:19:03;98380.97;;;4.37;65.65
61035;BME280;46916;40.564;-7.958;2023-01-25T04:21:05;98379.06;;;4.40;65.29
61035;BME280;46916;40.564;-7.958;2023-01-25T04:23:06;98370.75;;;4.34;65.01
61035;BME280;46916;40.564;-7.958;2023-01-25T04:25:10;98382.56;;;4.39;65.27
61035;BME280;46916;40.564;-7.958;2023-01-25T04:27:17;98386.09;;;4.38;65.16
61035;BME280;46916;40.564;-7.958;2023-01-25T04:29:27;98385.25;;;4.38;65.20
61035;BME280;46916;40.564;-7.958;2023-01-25T04:31:29;98374.88;;;4.38;64.45
61035;BME280;46916;40.564;-7.958;2023-01-25T04:33:32;98384.06;;;4.45;64.71
61035;BME280;46916;40.564;-7.958;2023-01-25T04:35:33;98380.63;;;4.44;64.83
61035;BME280;46916;40.564;-7.958;2023-01-25T04:37:35;98385.03;;;4.42;64.97
61035;BME280;46916;40.564;-7.958;2023-01-25T04:39:36;98389.38;;;4.42;64.62
61035;BME280;46916;40.564;-7.958;2023-01-25T04:41:37;98387.75;;;4.39;65.20
61035;BME280;46916;40.564;-7.958;2023-01-25T04:43:39;98383.56;;;4.37;65.10
61035;BME280;46916;40.564;-7.958;2023-01-25T04:45:43;98382.03;;;4.33;64.71
61035;BME280;46916;40.564;-7.958;2023-01-25T04:47:55;98372.19;;;4.20;64.68
61035;BME280;46916;40.564;-7.958;2023-01-25T04:49:56;98387.59;;;4.23;65.61
61035;BME280;46916;40.564;-7.958;2023-01-25T04:52:01;98387.75;;;4.20;65.51
61035;BME280;46916;40.564;-7.958;2023-01-25T04:54:02;98383.94;;;4.09;65.60
61035;BME280;46916;40.564;-7.958;2023-01-25T04:56:04;98378.44;;;3.96;65.95
61035;BME280;46916;40.564;-7.958;2023-01-25T04:58:09;98377.72;;;3.92;66.19
61035;BME280;46916;40.564;-7.958;2023-01-25T05:00:11;98386.34;;;3.93;66.07
61035;BME280;46916;40.564;-7.958;2023-01-25T05:02:12;98393.47;;;3.88;66.35
61035;BME280;46916;40.564;-7.958;2023-01-25T05:04:13;98382.19;;;3.89;66.36
61035;BME280;46916;40.564;-7.958;2023-01-25T05:06:18;98384.78;;;3.89;66.44
61035;BME280;46916;40.564;-7.958;2023-01-25T05:08:18;98382.31;;;3.86;66.42
61035;BME280;46916;40.564;-7.958;2023-01-25T05:10:19;98384.00;;;3.87;66.70
61035;BME280;46916;40.564;-7.958;2023-01-25T05:12:43;98381.41;;;3.87;66.52
61035;BME280;46916;40.564;-7.958;2023-01-25T05:14:44;98376.16;;;3.88;66.07
61035;BME280;46916;40.564;-7.958;2023-01-25T05:16:45;98380.03;;;3.98;66.12
61035;BME280;46916;40.564;-7.958;2023-01-25T05:18:48;98376.69;;;3.96;65.79
61035;BME280;46916;40.564;-7.958;2023-01-25T05:20:54;98383.63;;;3.96;65.84
61035;BME280;46916;40.564;-7.958;2023-01-25T05:22:57;98385.63;;;3.89;65.79
61035;BME280;46916;40.564;-7.958;2023-01-25T05:24:58;98390.00;;;3.87;66.49
61035;BME280;46916;40.564;-7.958;2023-01-25T05:27:00;98374.75;;;3.81;65.77
61035;BME280;46916;40.564;-7.958;2023-01-25T05:29:39;98388.09;;;3.92;66.16
61035;BME280;46916;40.564;-7.958;2023-01-25T05:31:41;98387.25;;;3.92;66.19
61035;BME280;46916;40.564;-7.958;2023-01-25T05:33:43;98388.53;;;3.82;66.13
61035;BME280;46916;40.564;-7.958;2023-01-25T05:35:44;98387.88;;;3.77;66.68
61035;BME280;46916;40.564;-7.958;2023-01-25T05:37:45;98388.59;;;3.80;66.22
61035;BME280;46916;40.564;-7.958;2023-01-25T05:39:54;98390.47;;;3.77;66.36
61035;BME280;46916;40.564;-7.958;2023-01-25T05:41:55;98382.59;;;3.80;66.17
61035;BME280;46916;40.564;-7.958;2023-01-25T05:43:56;98384.50;;;3.75;66.24
61035;BME280;46916;40.564;-7.958;2023-01-25T05:45:57;98391.53;;;3.72;66.43
61035;BME280;46916;40.564;-7.958;2023-01-25T05:47:58;98389.13;;;3.68;66.85
61035;BME280;46916;40.564;-7.958;2023-01-25T05:49:59;98391.63;;;3.69;66.77
61035;BME280;46916;40.564;-7.958;2023-01-25T05:52:17;98383.16;;;3.66;66.49
61035;BME280;46916;40.564;-7.958;2023-01-25T05:54:18;98374.81;;;3.59;66.54
61035;BME280;46916;40.564;-7.958;2023-01-25T05:56:26;98390.19;;;3.62;66.83
61035;BME280;46916;40.564;-7.958;2023-01-25T05:58:28;98395.38;;;3.62;66.68
61035;BME280;46916;40.564;-7.958;2023-01-25T06:00:29;98393.78;;;3.60;67.41
61035;BME280;46916;40.564;-7.958;2023-01-25T06:02:30;98379.28;;;3.56;67.20
61035;BME280;46916;40.564;-7.958;2023-01-25T06:04:31;98398.16;;;3.58;67.33
61035;BME280;46916;40.564;-7.958;2023-01-25T06:06:32;98392.53;;;3.48;67.27
61035;BME280;46916;40.564;-7.958;2023-01-25T06:08:34;98393.47;;;3.45;67.03
61035;BME280;46916;40.564;-7.958;2023-01-25T06:10:34;98390.97;;;3.44;67.36
61035;BME280;46916;40.564;-7.958;2023-01-25T06:12:35;98403.00;;;3.45;67.36
61035;BME280;46916;40.564;-7.958;2023-01-25T06:14:36;98404.50;;;3.51;67.36
61035;BME280;46916;40.564;-7.958;2023-01-25T06:16:37;98388.94;;;3.51;67.41
61035;BME280;46916;40.564;-7.958;2023-01-25T06:18:58;98402.88;;;3.48;67.76
61035;BME280;46916;40.564;-7.958;2023-01-25T06:21:20;98403.41;;;3.56;67.52
61035;BME280;46916;40.564;-7.958;2023-01-25T06:23:20;98398.88;;;3.61;66.87
61035;BME280;46916;40.564;-7.958;2023-01-25T06:25:21;98408.59;;;3.56;67.37
61035;BME280;46916;40.564;-7.958;2023-01-25T06:27:22;98406.91;;;3.55;67.15
61035;BME280;46916;40.564;-7.958;2023-01-25T06:29:23;98411.94;;;3.58;67.41
61035;BME280;46916;40.564;-7.958;2023-01-25T06:31:23;98413.66;;;3.59;66.96
61035;BME280;46916;40.564;-7.958;2023-01-25T06:33:24;98410.19;;;3.59;67.40
61035;BME280;46916;40.564;-7.958;2023-01-25T06:35:25;98400.56;;;3.62;66.44
61035;BME280;46916;40.564;-7.958;2023-01-25T06:37:25;98407.25;;;3.68;66.78
61035;BME280;46916;40.564;-7.958;2023-01-25T06:39:26;98403.81;;;3.67;66.65
61035;BME280;46916;40.564;-7.958;2023-01-25T06:41:29;98413.19;;;3.70;66.62
61035;BME280;46916;40.564;-7.958;2023-01-25T06:43:30;98408.84;;;3.70;66.61
61035;BME280;46916;40.564;-7.958;2023-01-25T06:45:31;98416.59;;;3.72;66.70
61035;BME280;46916;40.564;-7.958;2023-01-25T06:47:32;98418.34;;;3.71;66.02
61035;BME280;46916;40.564;-7.958;2023-01-25T06:49:33;98414.03;;;3.70;66.61
61035;BME280;46916;40.564;-7.958;2023-01-25T06:51:34;98415.16;;;3.65;66.29
61035;BME280;46916;40.564;-7.958;2023-01-25T06:53:36;98419.50;;;3.64;66.66
61035;BME280;46916;40.564;-7.958;2023-01-25T06:55:38;98428.19;;;3.63;66.76
61035;BME280;46916;40.564;-7.958;2023-01-25T06:57:39;98430.69;;;3.65;66.35
61035;BME280;46916;40.564;-7.958;2023-01-25T06:59:40;98437.56;;;3.66;66.48
61035;BME280;46916;40.564;-7.958;2023-01-25T07:01:41;98432.56;;;3.61;66.32
61035;BME280;46916;40.564;-7.958;2023-01-25T07:03:42;98430.94;;;3.59;66.46
61035;BME280;46916;40.564;-7.958;2023-01-25T07:05:42;98436.06;;;3.60;66.74
61035;BME280;46916;40.564;-7.958;2023-01-25T07:07:44;98439.31;;;3.65;66.79
61035;BME280;46916;40.564;-7.958;2023-01-25T07:09:45;98435.22;;;3.60;66.31
61035;BME280;46916;40.564;-7.958;2023-01-25T07:11:46;98437.03;;;3.58;66.71
61035;BME280;46916;40.564;-7.958;2023-01-25T07:13:47;98432.03;;;3.53;66.74
61035;BME280;46916;40.564;-7.958;2023-01-25T07:16:07;98429.44;;;3.53;66.45
61035;BME280;46916;40.564;-7.958;2023-01-25T07:18:09;98429.25;;;3.58;66.63
61035;BME280;46916;40.564;-7.958;2023-01-25T07:20:10;98428.47;;;3.56;66.19
61035;BME280;46916;40.564;-7.958;2023-01-25T07:22:11;98433.84;;;3.51;66.48
61035;BME280;46916;40.564;-7.958;2023-01-25T07:24:13;98436.56;;;3.48;66.72
61035;BME280;46916;40.564;-7.958;2023-01-25T07:26:17;98422.78;;;3.47;66.68
61035;BME280;46916;40.564;-7.958;2023-01-25T07:28:18;98428.91;;;3.45;66.57
61035;BME280;46916;40.564;-7.958;2023-01-25T07:30:19;98438.31;;;3.47;66.75
61035;BME280;46916;40.564;-7.958;2023-01-25T07:32:21;98440.75;;;3.51;66.53
61035;BME280;46916;40.564;-7.958;2023-01-25T07:34:21;98440.72;;;3.52;66.55
61035;BME280;46916;40.564;-7.958;2023-01-25T07:36:23;98447.09;;;3.43;66.77
61035;BME280;46916;40.564;-7.958;2023-01-25T07:38:24;98450.47;;;3.45;66.64
61035;BME280;46916;40.564;-7.958;2023-01-25T07:40:25;98454.72;;;3.46;66.60
61035;BME280;46916;40.564;-7.958;2023-01-25T07:42:26;98457.38;;;3.45;66.63
61035;BME280;46916;40.564;-7.958;2023-01-25T07:44:44;98456.47;;;3.46;66.54
61035;BME280;46916;40.564;-7.958;2023-01-25T07:46:46;98458.34;;;3.42;66.92
61035;BME280;46916;40.564;-7.958;2023-01-25T07:48:48;98450.53;;;3.44;66.65
61035;BME280;46916;40.564;-7.958;2023-01-25T07:50:49;98457.66;;;3.39;67.06
61035;BME280;46916;40.564;-7.958;2023-01-25T07:53:11;98457.50;;;3.42;66.59
61035;BME280;46916;40.564;-7.958;2023-01-25T07:55:12;98463.13;;;3.31;66.73
61035;BME280;46916;40.564;-7.958;2023-01-25T07:57:13;98460.53;;;3.31;67.24
61035;BME280;46916;40.564;-7.958;2023-01-25T07:59:14;98464.91;;;3.29;67.13
61035;BME280;46916;40.564;-7.958;2023-01-25T08:01:18;98455.94;;;3.38;66.71
61035;BME280;46916;40.564;-7.958;2023-01-25T08:03:19;98464.31;;;3.66;66.96
61035;BME280;46916;40.564;-7.958;2023-01-25T08:05:21;98461.22;;;3.99;65.54
61035;BME280;46916;40.564;-7.958;2023-01-25T08:07:22;98462.03;;;4.21;65.11
61035;BME280;46916;40.564;-7.958;2023-01-25T08:09:23;98466.50;;;4.38;64.06
61035;BME280;46916;40.564;-7.958;2023-01-25T08:11:26;98475.88;;;4.61;63.63
61035;BME280;46916;40.564;-7.958;2023-01-25T08:13:30;98480.38;;;4.77;63.06
61035;BME280;46916;40.564;-7.958;2023-01-25T08:15:34;98471.50;;;4.82;62.73
61035;BME280;46916;40.564;-7.958;2023-01-25T08:17:35;98482.09;;;4.96;62.07
61035;BME280;46916;40.564;-7.958;2023-01-25T08:19:35;98483.75;;;4.97;61.92
61035;BME280;46916;40.564;-7.958;2023-01-25T08:21:36;98494.94;;;5.00;60.94
61035;BME280;46916;40.564;-7.958;2023-01-25T08:23:37;98493.81;;;4.86;61.05
61035;BME280;46916;40.564;-7.958;2023-01-25T08:25:40;98492.84;;;4.68;62.41
61035;BME280;46916;40.564;-7.958;2023-01-25T08:27:44;98486.78;;;4.69;62.50
61035;BME280;46916;40.564;-7.958;2023-01-25T08:29:48;98498.53;;;4.77;61.97
61035;BME280;46916;40.564;-7.958;2023-01-25T08:31:53;98504.75;;;4.93;65.97
61035;BME280;46916;40.564;-7.958;2023-01-25T08:33:55;98505.88;;;5.25;64.98
61035;BME280;46916;40.564;-7.958;2023-01-25T08:35:56;98506.22;;;5.55;62.39
61035;BME280;46916;40.564;-7.958;2023-01-25T08:37:57;98501.53;;;5.63;61.93
61035;BME280;46916;40.564;-7.958;2023-01-25T08:39:57;98505.47;;;5.70;60.61
61035;BME280;46916;40.564;-7.958;2023-01-25T08:41:59;98496.72;;;5.54;60.33
61035;BME280;46916;40.564;-7.958;2023-01-25T08:43:59;98491.41;;;5.57;61.75
61035;BME280;46916;40.564;-7.958;2023-01-25T08:46:01;98509.94;;;5.68;59.90
61035;BME280;46916;40.564;-7.958;2023-01-25T08:48:01;98505.47;;;5.70;60.21
61035;BME280;46916;40.564;-7.958;2023-01-25T08:50:03;98519.53;;;5.85;59.79
61035;BME280;46916;40.564;-7.958;2023-01-25T08:52:03;98510.31;;;5.97;59.36
61035;BME280;46916;40.564;-7.958;2023-01-25T08:54:06;98514.31;;;6.04;59.11
61035;BME280;46916;40.564;-7.958;2023-01-25T08:56:10;98503.91;;;6.04;58.82
61035;BME280;46916;40.564;-7.958;2023-01-25T08:58:13;98516.00;;;6.05;57.82
61035;BME280;46916;40.564;-7.958;2023-01-25T09:00:16;98527.94;;;5.90;58.90
61035;BME280;46916;40.564;-7.958;2023-01-25T09:02:42;98531.38;;;5.91;58.88
61035;BME280;46916;40.564;-7.958;2023-01-25T09:04:43;98527.00;;;5.93;58.89
61035;BME280;46916;40.564;-7.958;2023-01-25T09:06:48;98534.94;;;6.07;59.25
61035;BME280;46916;40.564;-7.958;2023-01-25T09:08:49;98537.31;;;6.12;58.45
61035;BME280;46916;40.564;-7.958;2023-01-25T09:10:50;98541.16;;;6.22;57.04
61035;BME280;46916;40.564;-7.958;2023-01-25T09:12:50;98540.94;;;6.27;57.36
61035;BME280;46916;40.564;-7.958;2023-01-25T09:14:51;98538.34;;;6.27;58.37
61035;BME280;46916;40.564;-7.958;2023-01-25T09:16:52;98550.66;;;6.40;57.09
61035;BME280;46916;40.564;-7.958;2023-01-25T09:18:54;98537.13;;;6.16;57.14
61035;BME280;46916;40.564;-7.958;2023-01-25T09:20:55;98544.47;;;6.08;57.42
61035;BME280;46916;40.564;-7.958;2023-01-25T09:22:56;98547.47;;;5.99;58.31
61035;BME280;46916;40.564;-7.958;2023-01-25T09:24:58;98547.66;;;5.96;57.98
61035;BME280;46916;40.564;-7.958;2023-01-25T09:26:59;98554.66;;;5.94;58.70
61035;BME280;46916;40.564;-7.958;2023-01-25T09:29:00;98556.59;;;6.08;58.70
61035;BME280;46916;40.564;-7.958;2023-01-25T09:31:06;98555.47;;;6.13;58.25
61035;BME280;46916;40.564;-7.958;2023-01-25T09:33:37;98553.09;;;6.43;58.50
61035;BME280;46916;40.564;-7.958;2023-01-25T09:35:38;98555.78;;;6.59;57.22
61035;BME280;46916;40.564;-7.958;2023-01-25T09:37:39;98558.44;;;6.75;57.10
61035;BME280;46916;40.564;-7.958;2023-01-25T09:39:39;98565.09;;;6.81;56.43
61035;BME280;46916;40.564;-7.958;2023-01-25T09:46:40;98573.25;;;6.57;57.03
61035;BME280;46916;40.564;-7.958;2023-01-25T09:49:12;98557.41;;;6.62;56.58
61035;BME280;46916;40.564;-7.958;2023-01-25T09:51:25;98575.81;;;6.92;55.90
61035;BME280;46916;40.564;-7.958;2023-01-25T09:53:33;98573.69;;;6.83;55.97
61035;BME280;46916;40.564;-7.958;2023-01-25T09:55:36;98573.25;;;6.75;56.04
61035;BME280;46916;40.564;-7.958;2023-01-25T09:57:39;98570.53;;;6.76;56.03
61035;BME280;46916;40.564;-7.958;2023-01-25T09:59:43;98567.81;;;6.62;55.57
61035;BME280;46916;40.564;-7.958;2023-01-25T10:02:50;98571.50;;;6.58;56.81
61035;BME280;46916;40.564;-7.958;2023-01-25T10:04:27;98581.25;;;6.87;55.72
61035;BME280;46916;40.564;-7.958;2023-01-25T10:06:37;98570.69;;;6.73;55.81
61035;BME280;46916;40.564;-7.958;2023-01-25T10:10:44;98587.16;;;6.91;56.18
61035;BME280;46916;40.564;-7.958;2023-01-25T10:12:46;98587.66;;;6.98;56.15
61035;BME280;46916;40.564;-7.958;2023-01-25T10:14:47;98589.88;;;7.05;55.74
61035;BME280;46916;40.564;-7.958;2023-01-25T10:17:00;98591.69;;;7.20;55.42
61035;BME280;46916;40.564;-7.958;2023-01-25T10:21:41;98594.28;;;7.20;54.67
61035;BME280;46916;40.564;-7.958;2023-01-25T10:26:00;98590.94;;;7.18;54.59
61035;BME280;46916;40.564;-7.958;2023-01-25T10:30:30;98587.69;;;7.31;53.61
61035;BME280;46916;40.564;-7.958;2023-01-25T10:32:33;98587.84;;;7.28;54.62
61035;BME280;46916;40.564;-7.958;2023-01-25T10:34:45;98579.53;;;7.37;54.04
61035;BME280;46916;40.564;-7.958;2023-01-25T10:36:53;98583.66;;;7.41;53.98
61035;BME280;46916;40.564;-7.958;2023-01-25T10:38:54;98580.47;;;7.36;54.10
61035;BME280;46916;40.564;-7.958;2023-01-25T10:41:06;98597.47;;;7.43;53.98
61035;BME280;46916;40.564;-7.958;2023-01-25T10:43:20;98598.75;;;7.52;53.69
61035;BME280;46916;40.564;-7.958;2023-01-25T10:45:21;98590.81;;;7.53;53.45
61035;BME280;46916;40.564;-7.958;2023-01-25T10:47:26;98582.25;;;7.51;53.80
61035;BME280;46916;40.564;-7.958;2023-01-25T10:49:53;98583.84;;;7.54;54.12
61035;BME280;46916;40.564;-7.958;2023-01-25T10:51:55;98590.94;;;7.67;53.52
61035;BME280;46916;40.564;-7.958;2023-01-25T10:54:03;98585.88;;;7.80;53.07
61035;BME280;46916;40.564;-7.958;2023-01-25T10:58:34;98581.09;;;7.73;53.73
61035;BME280;46916;40.564;-7.958;2023-01-25T11:00:39;98581.94;;;7.89;53.07
61035;BME280;46916;40.564;-7.958;2023-01-25T11:02:47;98583.34;;;7.94;52.56
61035;BME280;46916;40.564;-7.958;2023-01-25T11:04:48;98580.84;;;7.93;52.03
61035;BME280;46916;40.564;-7.958;2023-01-25T11:06:49;98581.50;;;7.97;52.02
61035;BME280;46916;40.564;-7.958;2023-01-25T11:08:52;98581.66;;;7.93;52.89
61035;BME280;46916;40.564;-7.958;2023-01-25T11:10:53;98569.81;;;7.88;52.87
61035;BME280;46916;40.564;-7.958;2023-01-25T11:15:24;98578.63;;;8.17;51.34
61035;BME280;46916;40.564;-7.958;2023-01-25T11:17:30;98578.47;;;8.04;51.82
61035;BME280;46916;40.564;-7.958;2023-01-25T11:19:34;98572.50;;;8.02;52.63
61035;BME280;46916;40.564;-7.958;2023-01-25T11:21:35;98567.09;;;8.21;51.68
61035;BME280;46916;40.564;-7.958;2023-01-25T11:23:38;98567.69;;;8.10;52.22
61035;BME280;46916;40.564;-7.958;2023-01-25T11:25:40;98569.28;;;8.13;52.40